sensor_id;sensor_type;location;lat;lon;timestamp;P1;durP1;ratioP1;P2;durP2;ratioP2
66472;SDS011;53291;51.680;8.344;2022-10-22T00:01:34;10.80;;;5.03;;
66472;SDS011;53291;51.680;8.344;2022-10-22T00:04:00;10.38;;;6.53;;
66472;SDS011;53291;51.680;8.344;2022-10-22T00:06:25;10.67;;;6.60;;
66472;SDS011;53291;51.680;8.344;2022-10-22T00:08:51;9.60;;;5.93;;
66472;SDS011;53291;51.680;8.344;2022-10-22T00:11:17;14.48;;;7.55;;
66472;SDS011;53291;51.680;8.344;2022-10-22T00:13:43;10.88;;;5.38;;
66472;SDS011;53291;51.680;8.344;2022-10-22T00:16:09;9.48;;;5.68;;
66472;SDS011;53291;51.680;8.344;2022-10-22T00:18:35;11.55;;;6.25;;
66472;SDS011;53291;51.680;8.344;2022-10-22T00:21:01;11.43;;;6.15;;
66472;SDS011;53291;51.680;8.344;2022-10-22T00:23:27;9.98;;;5.60;;
66472;SDS011;53291;51.680;8.344;2022-10-22T00:25:52;7.28;;;5.00;;
66472;SDS011;53291;51.680;8.344;2022-10-22T00:28:18;10.90;;;6.20;;
66472;SDS011;53291;51.680;8.344;2022-10-22T00:30:43;10.43;;;5.63;;
66472;SDS011;53291;51.680;8.344;2022-10-22T00:33:09;10.30;;;5.80;;
66472;SDS011;53291;51.680;8.344;2022-10-22T00:35:34;9.90;;;5.90;;
66472;SDS011;53291;51.680;8.344;2022-10-22T00:38:01;9.57;;;5.35;;
66472;SDS011;53291;51.680;8.344;2022-10-22T00:40:26;9.57;;;5.47;;
66472;SDS011;53291;51.680;8.344;2022-10-22T00:42:51;10.77;;;6.23;;
66472;SDS011;53291;51.680;8.344;2022-10-22T00:45:24;15.32;;;7.40;;
66472;SDS011;53291;51.680;8.344;2022-10-22T00:47:56;10.35;;;6.05;;
66472;SDS011;53291;51.680;8.344;2022-10-22T00:52:48;10.97;;;5.63;;
66472;SDS011;53291;51.680;8.344;2022-10-22T00:55:14;9.45;;;4.70;;
66472;SDS011;53291;51.680;8.344;2022-10-22T00:57:41;9.07;;;5.40;;
66472;SDS011;53291;51.680;8.344;2022-10-22T01:00:07;9.90;;;6.28;;
66472;SDS011;53291;51.680;8.344;2022-10-22T01:02:33;10.90;;;5.25;;
66472;SDS011;53291;51.680;8.344;2022-10-22T01:04:58;8.13;;;5.10;;
66472;SDS011;53291;51.680;8.344;2022-10-22T01:07:23;8.77;;;5.30;;
66472;SDS011;53291;51.680;8.344;2022-10-22T01:10:02;9.18;;;5.22;;
66472;SDS011;53291;51.680;8.344;2022-10-22T01:17:40;10.13;;;5.13;;
66472;SDS011;53291;51.680;8.344;2022-10-22T01:20:31;8.07;;;4.70;;
66472;SDS011;53291;51.680;8.344;2022-10-22T01:26:02;9.40;;;4.00;;
66472;SDS011;53291;51.680;8.344;2022-10-22T01:28:47;6.90;;;3.70;;
66472;SDS011;53291;51.680;8.344;2022-10-22T01:31:35;7.28;;;4.15;;
66472;SDS011;53291;51.680;8.344;2022-10-22T01:34:03;7.25;;;4.13;;
66472;SDS011;53291;51.680;8.344;2022-10-22T01:36:32;7.28;;;4.15;;
66472;SDS011;53291;51.680;8.344;2022-10-22T01:39:00;7.28;;;3.75;;
66472;SDS011;53291;51.680;8.344;2022-10-22T01:41:27;7.97;;;4.82;;
66472;SDS011;53291;51.680;8.344;2022-10-22T01:43:53;7.13;;;4.13;;
66472;SDS011;53291;51.680;8.344;2022-10-22T01:46:21;8.00;;;3.70;;
66472;SDS011;53291;51.680;8.344;2022-10-22T01:48:55;6.78;;;4.10;;
66472;SDS011;53291;51.680;8.344;2022-10-22T01:57:42;6.10;;;3.83;;
66472;SDS011;53291;51.680;8.344;2022-10-22T02:00:09;7.00;;;3.90;;
66472;SDS011;53291;51.680;8.344;2022-10-22T02:05:20;8.07;;;4.35;;
66472;SDS011;53291;51.680;8.344;2022-10-22T02:07:49;7.72;;;4.15;;
66472;SDS011;53291;51.680;8.344;2022-10-22T02:10:18;8.40;;;3.97;;
66472;SDS011;53291;51.680;8.344;2022-10-22T02:12:47;7.50;;;4.38;;
66472;SDS011;53291;51.680;8.344;2022-10-22T02:15:16;7.60;;;4.25;;
66472;SDS011;53291;51.680;8.344;2022-10-22T02:17:44;9.15;;;4.40;;
66472;SDS011;53291;51.680;8.344;2022-10-22T02:20:22;6.60;;;3.65;;
66472;SDS011;53291;51.680;8.344;2022-10-22T02:22:51;6.40;;;3.67;;
66472;SDS011;53291;51.680;8.344;2022-10-22T02:25:17;7.72;;;4.22;;
66472;SDS011;53291;51.680;8.344;2022-10-22T02:27:46;7.22;;;3.95;;
66472;SDS011;53291;51.680;8.344;2022-10-22T02:30:17;8.30;;;4.18;;
66472;SDS011;53291;51.680;8.344;2022-10-22T02:32:54;7.55;;;4.22;;
66472;SDS011;53291;51.680;8.344;2022-10-22T02:35:25;7.63;;;4.30;;
66472;SDS011;53291;51.680;8.344;2022-10-22T02:37:53;9.32;;;4.22;;
66472;SDS011;53291;51.680;8.344;2022-10-22T02:40:20;9.40;;;4.60;;
66472;SDS011;53291;51.680;8.344;2022-10-22T02:42:46;7.75;;;4.75;;
66472;SDS011;53291;51.680;8.344;2022-10-22T02:45:13;8.38;;;4.15;;
66472;SDS011;53291;51.680;8.344;2022-10-22T02:47:40;9.35;;;4.70;;
66472;SDS011;53291;51.680;8.344;2022-10-22T02:50:05;8.50;;;4.35;;
66472;SDS011;53291;51.680;8.344;2022-10-22T02:52:31;8.43;;;4.63;;
66472;SDS011;53291;51.680;8.344;2022-10-22T02:54:56;9.15;;;4.22;;
66472;SDS011;53291;51.680;8.344;2022-10-22T02:57:21;8.07;;;4.30;;
66472;SDS011;53291;51.680;8.344;2022-10-22T02:59:47;10.18;;;5.15;;
66472;SDS011;53291;51.680;8.344;2022-10-22T03:02:12;9.43;;;5.40;;
66472;SDS011;53291;51.680;8.344;2022-10-22T03:04:37;9.00;;;5.13;;
66472;SDS011;53291;51.680;8.344;2022-10-22T03:07:03;9.33;;;5.00;;
66472;SDS011;53291;51.680;8.344;2022-10-22T03:09:28;7.20;;;4.43;;
66472;SDS011;53291;51.680;8.344;2022-10-22T03:11:53;10.75;;;5.22;;
66472;SDS011;53291;51.680;8.344;2022-10-22T03:14:19;11.43;;;5.70;;
66472;SDS011;53291;51.680;8.344;2022-10-22T03:16:44;8.80;;;4.65;;
66472;SDS011;53291;51.680;8.344;2022-10-22T03:19:09;10.20;;;5.07;;
66472;SDS011;53291;51.680;8.344;2022-10-22T03:21:39;9.23;;;4.80;;
66472;SDS011;53291;51.680;8.344;2022-10-22T03:24:12;10.13;;;5.95;;
66472;SDS011;53291;51.680;8.344;2022-10-22T03:26:41;8.75;;;4.70;;
66472;SDS011;53291;51.680;8.344;2022-10-22T03:29:08;9.85;;;5.40;;
66472;SDS011;53291;51.680;8.344;2022-10-22T03:31:35;8.98;;;4.90;;
66472;SDS011;53291;51.680;8.344;2022-10-22T03:34:00;11.07;;;5.32;;
66472;SDS011;53291;51.680;8.344;2022-10-22T03:36:26;9.05;;;4.65;;
66472;SDS011;53291;51.680;8.344;2022-10-22T03:38:51;8.13;;;5.65;;
66472;SDS011;53291;51.680;8.344;2022-10-22T03:41:16;8.40;;;4.85;;
66472;SDS011;53291;51.680;8.344;2022-10-22T03:43:42;9.45;;;4.90;;
66472;SDS011;53291;51.680;8.344;2022-10-22T03:46:09;8.43;;;4.78;;
66472;SDS011;53291;51.680;8.344;2022-10-22T03:48:34;10.40;;;4.40;;
66472;SDS011;53291;51.680;8.344;2022-10-22T03:50:59;9.27;;;5.50;;
66472;SDS011;53291;51.680;8.344;2022-10-22T03:53:24;8.13;;;5.17;;
66472;SDS011;53291;51.680;8.344;2022-10-22T03:55:50;8.43;;;4.10;;
66472;SDS011;53291;51.680;8.344;2022-10-22T03:58:15;7.03;;;4.40;;
66472;SDS011;53291;51.680;8.344;2022-10-22T04:00:40;8.70;;;4.53;;
66472;SDS011;53291;51.680;8.344;2022-10-22T04:03:06;6.25;;;3.53;;
66472;SDS011;53291;51.680;8.344;2022-10-22T04:05:32;6.80;;;3.90;;
66472;SDS011;53291;51.680;8.344;2022-10-22T04:07:57;6.07;;;3.58;;
66472;SDS011;53291;51.680;8.344;2022-10-22T04:10:23;6.45;;;3.58;;
66472;SDS011;53291;51.680;8.344;2022-10-22T04:12:48;6.80;;;3.30;;
66472;SDS011;53291;51.680;8.344;2022-10-22T04:15:13;7.15;;;4.13;;
66472;SDS011;53291;51.680;8.344;2022-10-22T04:17:39;6.18;;;3.55;;
66472;SDS011;53291;51.680;8.344;2022-10-22T04:20:05;7.07;;;4.27;;
66472;SDS011;53291;51.680;8.344;2022-10-22T04:22:33;7.65;;;4.85;;
66472;SDS011;53291;51.680;8.344;2022-10-22T04:24:59;10.57;;;5.43;;
66472;SDS011;53291;51.680;8.344;2022-10-22T04:27:25;7.18;;;4.20;;
66472;SDS011;53291;51.680;8.344;2022-10-22T04:29:53;8.90;;;4.15;;
66472;SDS011;53291;51.680;8.344;2022-10-22T04:32:18;6.70;;;4.23;;
66472;SDS011;53291;51.680;8.344;2022-10-22T04:34:43;9.57;;;4.90;;
66472;SDS011;53291;51.680;8.344;2022-10-22T04:37:09;8.13;;;3.97;;
66472;SDS011;53291;51.680;8.344;2022-10-22T04:39:34;6.10;;;3.93;;
66472;SDS011;53291;51.680;8.344;2022-10-22T04:41:59;6.90;;;3.47;;
66472;SDS011;53291;51.680;8.344;2022-10-22T04:44:24;7.30;;;4.03;;
66472;SDS011;53291;51.680;8.344;2022-10-22T04:46:50;6.57;;;4.07;;
66472;SDS011;53291;51.680;8.344;2022-10-22T04:49:15;7.97;;;4.00;;
66472;SDS011;53291;51.680;8.344;2022-10-22T04:51:40;6.20;;;3.63;;
66472;SDS011;53291;51.680;8.344;2022-10-22T04:54:06;7.90;;;3.77;;
66472;SDS011;53291;51.680;8.344;2022-10-22T04:56:31;7.65;;;4.10;;
66472;SDS011;53291;51.680;8.344;2022-10-22T04:58:58;6.63;;;3.13;;
66472;SDS011;53291;51.680;8.344;2022-10-22T05:01:32;8.30;;;4.55;;
66472;SDS011;53291;51.680;8.344;2022-10-22T05:04:00;8.10;;;3.60;;
66472;SDS011;53291;51.680;8.344;2022-10-22T05:06:28;5.68;;;3.75;;
66472;SDS011;53291;51.680;8.344;2022-10-22T05:08:58;7.60;;;3.83;;
66472;SDS011;53291;51.680;8.344;2022-10-22T05:11:27;6.28;;;3.95;;
66472;SDS011;53291;51.680;8.344;2022-10-22T05:13:55;7.22;;;3.75;;
66472;SDS011;53291;51.680;8.344;2022-10-22T05:16:22;7.25;;;3.63;;
66472;SDS011;53291;51.680;8.344;2022-10-22T05:18:47;9.27;;;4.35;;
66472;SDS011;53291;51.680;8.344;2022-10-22T05:21:13;8.18;;;4.10;;
66472;SDS011;53291;51.680;8.344;2022-10-22T05:23:41;9.77;;;4.10;;
66472;SDS011;53291;51.680;8.344;2022-10-22T05:26:08;10.43;;;4.70;;
66472;SDS011;53291;51.680;8.344;2022-10-22T05:28:35;12.43;;;5.55;;
66472;SDS011;53291;51.680;8.344;2022-10-22T05:31:01;9.00;;;4.88;;
66472;SDS011;53291;51.680;8.344;2022-10-22T05:33:27;9.60;;;5.10;;
66472;SDS011;53291;51.680;8.344;2022-10-22T05:35:54;9.20;;;4.70;;
66472;SDS011;53291;51.680;8.344;2022-10-22T05:38:20;8.15;;;4.57;;
66472;SDS011;53291;51.680;8.344;2022-10-22T05:40:45;9.10;;;4.82;;
66472;SDS011;53291;51.680;8.344;2022-10-22T05:43:11;7.63;;;4.50;;
66472;SDS011;53291;51.680;8.344;2022-10-22T05:45:37;7.53;;;4.22;;
66472;SDS011;53291;51.680;8.344;2022-10-22T05:48:03;7.93;;;4.20;;
66472;SDS011;53291;51.680;8.344;2022-10-22T05:50:29;8.18;;;4.60;;
66472;SDS011;53291;51.680;8.344;2022-10-22T05:52:55;7.45;;;4.20;;
66472;SDS011;53291;51.680;8.344;2022-10-22T05:55:21;8.55;;;4.78;;
66472;SDS011;53291;51.680;8.344;2022-10-22T05:57:46;7.97;;;4.97;;
66472;SDS011;53291;51.680;8.344;2022-10-22T06:00:14;8.30;;;5.20;;
66472;SDS011;53291;51.680;8.344;2022-10-22T06:02:40;8.40;;;4.40;;
66472;SDS011;53291;51.680;8.344;2022-10-22T06:05:05;8.85;;;5.85;;
66472;SDS011;53291;51.680;8.344;2022-10-22T06:07:31;8.27;;;4.65;;
66472;SDS011;53291;51.680;8.344;2022-10-22T06:09:57;11.07;;;5.47;;
66472;SDS011;53291;51.680;8.344;2022-10-22T06:12:23;8.27;;;5.15;;
66472;SDS011;53291;51.680;8.344;2022-10-22T06:14:48;9.05;;;5.50;;
66472;SDS011;53291;51.680;8.344;2022-10-22T06:17:14;9.35;;;5.55;;
66472;SDS011;53291;51.680;8.344;2022-10-22T06:19:39;9.17;;;5.07;;
66472;SDS011;53291;51.680;8.344;2022-10-22T06:22:04;10.30;;;5.33;;
66472;SDS011;53291;51.680;8.344;2022-10-22T06:24:30;10.00;;;5.23;;
66472;SDS011;53291;51.680;8.344;2022-10-22T06:26:55;10.50;;;5.13;;
66472;SDS011;53291;51.680;8.344;2022-10-22T06:29:20;7.25;;;4.57;;
66472;SDS011;53291;51.680;8.344;2022-10-22T06:31:46;9.65;;;4.90;;
66472;SDS011;53291;51.680;8.344;2022-10-22T06:34:12;8.25;;;4.85;;
66472;SDS011;53291;51.680;8.344;2022-10-22T06:36:38;12.15;;;5.45;;
66472;SDS011;53291;51.680;8.344;2022-10-22T06:39:06;7.80;;;4.63;;
66472;SDS011;53291;51.680;8.344;2022-10-22T06:41:35;8.48;;;4.40;;
66472;SDS011;53291;51.680;8.344;2022-10-22T06:44:00;10.02;;;4.85;;
66472;SDS011;53291;51.680;8.344;2022-10-22T06:46:26;7.55;;;4.07;;
66472;SDS011;53291;51.680;8.344;2022-10-22T06:48:52;7.68;;;4.05;;
66472;SDS011;53291;51.680;8.344;2022-10-22T06:51:19;9.35;;;4.10;;
66472;SDS011;53291;51.680;8.344;2022-10-22T06:53:45;13.23;;;4.72;;
66472;SDS011;53291;51.680;8.344;2022-10-22T06:56:12;7.68;;;4.40;;
66472;SDS011;53291;51.680;8.344;2022-10-22T06:58:39;7.82;;;4.00;;
66472;SDS011;53291;51.680;8.344;2022-10-22T07:01:06;8.70;;;4.03;;
66472;SDS011;53291;51.680;8.344;2022-10-22T07:03:34;6.93;;;4.10;;
66472;SDS011;53291;51.680;8.344;2022-10-22T07:06:00;7.90;;;3.80;;
66472;SDS011;53291;51.680;8.344;2022-10-22T07:08:26;8.88;;;4.20;;
66472;SDS011;53291;51.680;8.344;2022-10-22T07:10:52;6.20;;;4.22;;
66472;SDS011;53291;51.680;8.344;2022-10-22T07:13:18;6.28;;;3.67;;
66472;SDS011;53291;51.680;8.344;2022-10-22T07:15:43;7.73;;;3.67;;
66472;SDS011;53291;51.680;8.344;2022-10-22T07:18:08;6.50;;;3.70;;
66472;SDS011;53291;51.680;8.344;2022-10-22T07:20:33;6.73;;;3.77;;
66472;SDS011;53291;51.680;8.344;2022-10-22T07:22:59;7.00;;;4.13;;
66472;SDS011;53291;51.680;8.344;2022-10-22T07:25:24;6.30;;;3.70;;
66472;SDS011;53291;51.680;8.344;2022-10-22T07:27:49;7.90;;;4.20;;
66472;SDS011;53291;51.680;8.344;2022-10-22T07:30:16;7.90;;;4.00;;
66472;SDS011;53291;51.680;8.344;2022-10-22T07:32:42;7.95;;;4.47;;
66472;SDS011;53291;51.680;8.344;2022-10-22T07:35:07;15.50;;;4.95;;
66472;SDS011;53291;51.680;8.344;2022-10-22T07:37:32;8.98;;;4.57;;
66472;SDS011;53291;51.680;8.344;2022-10-22T07:39:58;7.73;;;4.37;;
66472;SDS011;53291;51.680;8.344;2022-10-22T07:42:23;8.87;;;4.77;;
66472;SDS011;53291;51.680;8.344;2022-10-22T07:44:48;7.70;;;4.68;;
66472;SDS011;53291;51.680;8.344;2022-10-22T07:47:14;7.97;;;4.57;;
66472;SDS011;53291;51.680;8.344;2022-10-22T07:49:39;8.38;;;4.70;;
66472;SDS011;53291;51.680;8.344;2022-10-22T07:52:05;7.50;;;5.10;;
66472;SDS011;53291;51.680;8.344;2022-10-22T07:54:32;9.68;;;6.47;;
66472;SDS011;53291;51.680;8.344;2022-10-22T07:56:57;7.20;;;4.82;;
66472;SDS011;53291;51.680;8.344;2022-10-22T07:59:22;7.80;;;5.17;;
66472;SDS011;53291;51.680;8.344;2022-10-22T08:01:48;8.25;;;6.30;;
66472;SDS011;53291;51.680;8.344;2022-10-22T08:04:13;7.90;;;5.03;;
66472;SDS011;53291;51.680;8.344;2022-10-22T08:06:38;9.98;;;5.28;;
66472;SDS011;53291;51.680;8.344;2022-10-22T08:09:04;9.68;;;5.25;;
66472;SDS011;53291;51.680;8.344;2022-10-22T08:11:29;10.27;;;5.50;;
66472;SDS011;53291;51.680;8.344;2022-10-22T08:13:57;8.82;;;5.57;;
66472;SDS011;53291;51.680;8.344;2022-10-22T08:16:23;8.90;;;4.97;;
66472;SDS011;53291;51.680;8.344;2022-10-22T08:18:48;9.97;;;5.57;;
66472;SDS011;53291;51.680;8.344;2022-10-22T08:21:14;9.13;;;4.82;;
66472;SDS011;53291;51.680;8.344;2022-10-22T08:23:41;8.57;;;4.60;;
66472;SDS011;53291;51.680;8.344;2022-10-22T08:26:07;7.15;;;2.97;;
66472;SDS011;53291;51.680;8.344;2022-10-22T08:28:33;5.57;;;3.05;;
66472;SDS011;53291;51.680;8.344;2022-10-22T08:31:01;4.55;;;2.55;;
66472;SDS011;53291;51.680;8.344;2022-10-22T08:33:27;8.10;;;3.38;;
66472;SDS011;53291;51.680;8.344;2022-10-22T08:35:53;6.37;;;2.37;;
66472;SDS011;53291;51.680;8.344;2022-10-22T08:38:18;5.10;;;2.03;;
66472;SDS011;53291;51.680;8.344;2022-10-22T08:40:46;5.55;;;2.13;;
66472;SDS011;53291;51.680;8.344;2022-10-22T08:48:53;4.38;;;1.63;;
66472;SDS011;53291;51.680;8.344;2022-10-22T08:51:25;7.20;;;2.72;;
66472;SDS011;53291;51.680;8.344;2022-10-22T08:56:22;3.75;;;1.80;;
66472;SDS011;53291;51.680;8.344;2022-10-22T08:58:55;6.65;;;1.58;;
66472;SDS011;53291;51.680;8.344;2022-10-22T09:01:35;5.20;;;1.50;;
66472;SDS011;53291;51.680;8.344;2022-10-22T09:06:49;3.78;;;1.42;;
66472;SDS011;53291;51.680;8.344;2022-10-22T09:09:15;5.78;;;1.60;;
66472;SDS011;53291;51.680;8.344;2022-10-22T09:11:43;5.40;;;2.20;;
66472;SDS011;53291;51.680;8.344;2022-10-22T09:14:18;5.07;;;1.92;;
66472;SDS011;53291;51.680;8.344;2022-10-22T09:19:32;7.53;;;1.65;;
66472;SDS011;53291;51.680;8.344;2022-10-22T09:22:00;5.15;;;1.08;;
66472;SDS011;53291;51.680;8.344;2022-10-22T09:24:38;4.63;;;1.23;;
66472;SDS011;53291;51.680;8.344;2022-10-22T09:27:09;7.38;;;1.50;;
66472;SDS011;53291;51.680;8.344;2022-10-22T09:29:46;5.57;;;1.67;;
66472;SDS011;53291;51.680;8.344;2022-10-22T09:32:12;3.95;;;1.20;;
66472;SDS011;53291;51.680;8.344;2022-10-22T09:34:38;5.53;;;2.08;;
66472;SDS011;53291;51.680;8.344;2022-10-22T09:37:05;5.32;;;1.60;;
66472;SDS011;53291;51.680;8.344;2022-10-22T09:39:33;3.72;;;1.30;;
66472;SDS011;53291;51.680;8.344;2022-10-22T09:42:03;6.50;;;1.30;;
66472;SDS011;53291;51.680;8.344;2022-10-22T09:44:28;5.85;;;1.30;;
66472;SDS011;53291;51.680;8.344;2022-10-22T09:46:58;6.10;;;1.10;;
66472;SDS011;53291;51.680;8.344;2022-10-22T09:49:23;5.15;;;1.40;;
66472;SDS011;53291;51.680;8.344;2022-10-22T09:54:22;5.32;;;1.38;;
66472;SDS011;53291;51.680;8.344;2022-10-22T09:56:56;5.70;;;1.23;;
66472;SDS011;53291;51.680;8.344;2022-10-22T09:59:30;7.22;;;1.35;;
66472;SDS011;53291;51.680;8.344;2022-10-22T10:02:02;4.25;;;0.85;;
66472;SDS011;53291;51.680;8.344;2022-10-22T10:04:39;4.18;;;1.30;;
66472;SDS011;53291;51.680;8.344;2022-10-22T10:07:14;4.38;;;0.90;;
66472;SDS011;53291;51.680;8.344;2022-10-22T10:09:41;4.30;;;1.20;;
66472;SDS011;53291;51.680;8.344;2022-10-22T10:12:13;4.97;;;1.00;;
66472;SDS011;53291;51.680;8.344;2022-10-22T10:14:51;7.28;;;1.10;;
66472;SDS011;53291;51.680;8.344;2022-10-22T10:17:27;5.20;;;1.17;;
66472;SDS011;53291;51.680;8.344;2022-10-22T10:31:19;6.18;;;1.30;;
66472;SDS011;53291;51.680;8.344;2022-10-22T10:33:59;9.73;;;1.23;;
66472;SDS011;53291;51.680;8.344;2022-10-22T10:42:42;4.55;;;1.58;;
66472;SDS011;53291;51.680;8.344;2022-10-22T10:45:21;7.68;;;1.40;;
66472;SDS011;53291;51.680;8.344;2022-10-22T10:59:12;8.25;;;1.65;;
66472;SDS011;53291;51.680;8.344;2022-10-22T11:07:26;7.38;;;2.25;;
66472;SDS011;53291;51.680;8.344;2022-10-22T11:10:07;6.90;;;2.58;;
66472;SDS011;53291;51.680;8.344;2022-10-22T11:12:39;4.55;;;1.70;;
66472;SDS011;53291;51.680;8.344;2022-10-22T11:18:00;6.97;;;2.33;;
66472;SDS011;53291;51.680;8.344;2022-10-22T11:23:05;7.47;;;2.30;;
66472;SDS011;53291;51.680;8.344;2022-10-22T11:25:39;6.50;;;2.13;;
66472;SDS011;53291;51.680;8.344;2022-10-22T11:28:10;7.00;;;2.17;;
66472;SDS011;53291;51.680;8.344;2022-10-22T11:30:40;7.53;;;2.30;;
66472;SDS011;53291;51.680;8.344;2022-10-22T11:33:10;4.57;;;2.00;;
66472;SDS011;53291;51.680;8.344;2022-10-22T11:35:40;5.93;;;2.00;;
66472;SDS011;53291;51.680;8.344;2022-10-22T11:38:10;5.85;;;2.38;;
66472;SDS011;53291;51.680;8.344;2022-10-22T11:40:49;6.95;;;3.05;;
66472;SDS011;53291;51.680;8.344;2022-10-22T11:43:31;4.22;;;1.65;;
66472;SDS011;53291;51.680;8.344;2022-10-22T11:48:39;5.30;;;1.77;;
66472;SDS011;53291;51.680;8.344;2022-10-22T11:51:27;4.35;;;1.70;;
66472;SDS011;53291;51.680;8.344;2022-10-22T11:53:56;4.25;;;1.48;;
66472;SDS011;53291;51.680;8.344;2022-10-22T11:56:24;6.28;;;1.80;;
66472;SDS011;53291;51.680;8.344;2022-10-22T11:58:51;5.68;;;1.58;;
66472;SDS011;53291;51.680;8.344;2022-10-22T12:01:23;5.90;;;1.50;;
66472;SDS011;53291;51.680;8.344;2022-10-22T12:06:25;5.07;;;1.52;;
66472;SDS011;53291;51.680;8.344;2022-10-22T12:11:27;5.65;;;1.42;;
66472;SDS011;53291;51.680;8.344;2022-10-22T12:19:16;4.68;;;1.85;;
66472;SDS011;53291;51.680;8.344;2022-10-22T12:21:52;4.05;;;1.48;;
66472;SDS011;53291;51.680;8.344;2022-10-22T12:24:21;4.55;;;1.30;;
66472;SDS011;53291;51.680;8.344;2022-10-22T12:26:48;5.45;;;1.40;;
66472;SDS011;53291;51.680;8.344;2022-10-22T12:29:16;7.18;;;1.42;;
66472;SDS011;53291;51.680;8.344;2022-10-22T12:31:44;2.95;;;1.17;;
66472;SDS011;53291;51.680;8.344;2022-10-22T12:34:15;4.05;;;1.45;;
66472;SDS011;53291;51.680;8.344;2022-10-22T12:36:42;5.57;;;1.42;;
66472;SDS011;53291;51.680;8.344;2022-10-22T12:39:10;5.05;;;1.63;;
66472;SDS011;53291;51.680;8.344;2022-10-22T12:41:38;4.35;;;1.50;;
66472;SDS011;53291;51.680;8.344;2022-10-22T12:44:04;5.07;;;1.88;;
66472;SDS011;53291;51.680;8.344;2022-10-22T12:46:35;4.28;;;1.38;;
66472;SDS011;53291;51.680;8.344;2022-10-22T12:49:01;5.75;;;1.25;;
66472;SDS011;53291;51.680;8.344;2022-10-22T12:51:29;4.38;;;1.17;;
66472;SDS011;53291;51.680;8.344;2022-10-22T12:53:56;4.25;;;1.33;;
66472;SDS011;53291;51.680;8.344;2022-10-22T12:56:35;3.58;;;1.02;;
66472;SDS011;53291;51.680;8.344;2022-10-22T12:59:19;2.80;;;1.33;;
66472;SDS011;53291;51.680;8.344;2022-10-22T13:01:47;4.63;;;0.90;;
66472;SDS011;53291;51.680;8.344;2022-10-22T13:04:19;3.58;;;0.80;;
66472;SDS011;53291;51.680;8.344;2022-10-22T13:06:48;3.17;;;1.10;;
66472;SDS011;53291;51.680;8.344;2022-10-22T13:09:19;5.72;;;1.33;;
66472;SDS011;53291;51.680;8.344;2022-10-22T13:11:53;3.40;;;0.95;;
66472;SDS011;53291;51.680;8.344;2022-10-22T13:14:29;2.53;;;0.95;;
66472;SDS011;53291;51.680;8.344;2022-10-22T13:24:56;3.90;;;0.80;;
66472;SDS011;53291;51.680;8.344;2022-10-22T13:27:47;3.42;;;1.38;;
66472;SDS011;53291;51.680;8.344;2022-10-22T13:30:23;3.55;;;0.98;;
66472;SDS011;53291;51.680;8.344;2022-10-22T13:33:01;4.60;;;1.55;;
66472;SDS011;53291;51.680;8.344;2022-10-22T13:35:50;4.15;;;0.88;;
66472;SDS011;53291;51.680;8.344;2022-10-22T13:38:17;1.88;;;0.70;;
66472;SDS011;53291;51.680;8.344;2022-10-22T13:40:44;2.28;;;0.60;;
66472;SDS011;53291;51.680;8.344;2022-10-22T13:43:09;2.80;;;0.60;;
66472;SDS011;53291;51.680;8.344;2022-10-22T13:45:35;3.03;;;0.60;;
66472;SDS011;53291;51.680;8.344;2022-10-22T13:48:00;2.08;;;0.57;;
66472;SDS011;53291;51.680;8.344;2022-10-22T13:50:26;4.28;;;0.73;;
66472;SDS011;53291;51.680;8.344;2022-10-22T13:52:52;4.47;;;0.98;;
66472;SDS011;53291;51.680;8.344;2022-10-22T13:55:24;4.43;;;1.02;;
66472;SDS011;53291;51.680;8.344;2022-10-22T13:58:08;4.15;;;0.90;;
66472;SDS011;53291;51.680;8.344;2022-10-22T14:00:36;5.97;;;1.80;;
66472;SDS011;53291;51.680;8.344;2022-10-22T14:03:03;4.15;;;1.00;;
66472;SDS011;53291;51.680;8.344;2022-10-22T14:05:29;5.97;;;1.20;;
66472;SDS011;53291;51.680;8.344;2022-10-22T14:07:58;3.85;;;1.10;;
66472;SDS011;53291;51.680;8.344;2022-10-22T14:10:25;3.85;;;1.00;;
66472;SDS011;53291;51.680;8.344;2022-10-22T14:12:50;5.47;;;1.42;;
66472;SDS011;53291;51.680;8.344;2022-10-22T14:15:18;4.28;;;1.10;;
66472;SDS011;53291;51.680;8.344;2022-10-22T14:17:52;4.65;;;2.15;;
66472;SDS011;53291;51.680;8.344;2022-10-22T14:20:26;4.57;;;1.05;;
66472;SDS011;53291;51.680;8.344;2022-10-22T14:22:53;6.15;;;1.02;;
66472;SDS011;53291;51.680;8.344;2022-10-22T14:25:21;4.82;;;1.17;;
66472;SDS011;53291;51.680;8.344;2022-10-22T14:27:48;4.15;;;1.10;;
66472;SDS011;53291;51.680;8.344;2022-10-22T14:30:18;3.13;;;1.00;;
66472;SDS011;53291;51.680;8.344;2022-10-22T14:32:46;3.80;;;1.00;;
66472;SDS011;53291;51.680;8.344;2022-10-22T14:35:13;4.32;;;1.20;;
66472;SDS011;53291;51.680;8.344;2022-10-22T14:37:41;3.42;;;0.70;;
66472;SDS011;53291;51.680;8.344;2022-10-22T14:40:07;4.75;;;1.08;;
66472;SDS011;53291;51.680;8.344;2022-10-22T14:42:38;3.53;;;0.82;;
66472;SDS011;53291;51.680;8.344;2022-10-22T14:45:06;3.55;;;0.82;;
66472;SDS011;53291;51.680;8.344;2022-10-22T14:47:40;4.57;;;0.98;;
66472;SDS011;53291;51.680;8.344;2022-10-22T14:50:06;3.22;;;0.80;;
66472;SDS011;53291;51.680;8.344;2022-10-22T14:52:32;5.05;;;0.90;;
66472;SDS011;53291;51.680;8.344;2022-10-22T14:54:58;2.95;;;0.90;;
66472;SDS011;53291;51.680;8.344;2022-10-22T14:57:23;2.45;;;1.00;;
66472;SDS011;53291;51.680;8.344;2022-10-22T14:59:48;2.97;;;0.77;;
66472;SDS011;53291;51.680;8.344;2022-10-22T15:02:14;5.68;;;0.80;;
66472;SDS011;53291;51.680;8.344;2022-10-22T15:04:39;2.75;;;0.80;;
66472;SDS011;53291;51.680;8.344;2022-10-22T15:07:05;3.33;;;0.45;;
66472;SDS011;53291;51.680;8.344;2022-10-22T15:09:30;2.72;;;0.55;;
66472;SDS011;53291;51.680;8.344;2022-10-22T15:11:55;2.65;;;0.60;;
66472;SDS011;53291;51.680;8.344;2022-10-22T15:14:21;3.40;;;1.17;;
66472;SDS011;53291;51.680;8.344;2022-10-22T15:16:46;3.38;;;0.82;;
66472;SDS011;53291;51.680;8.344;2022-10-22T15:19:12;2.67;;;0.77;;
66472;SDS011;53291;51.680;8.344;2022-10-22T15:21:37;3.80;;;0.80;;
66472;SDS011;53291;51.680;8.344;2022-10-22T15:24:03;3.25;;;0.80;;
66472;SDS011;53291;51.680;8.344;2022-10-22T15:26:29;7.43;;;2.17;;
66472;SDS011;53291;51.680;8.344;2022-10-22T15:28:54;4.53;;;1.23;;
66472;SDS011;53291;51.680;8.344;2022-10-22T15:31:40;2.93;;;0.70;;
66472;SDS011;53291;51.680;8.344;2022-10-22T15:34:06;4.18;;;0.73;;
66472;SDS011;53291;51.680;8.344;2022-10-22T15:36:31;3.13;;;0.70;;
66472;SDS011;53291;51.680;8.344;2022-10-22T15:38:57;3.27;;;0.80;;
66472;SDS011;53291;51.680;8.344;2022-10-22T15:41:22;4.73;;;0.73;;
66472;SDS011;53291;51.680;8.344;2022-10-22T15:43:47;5.43;;;0.87;;
66472;SDS011;53291;51.680;8.344;2022-10-22T15:46:14;4.90;;;0.73;;
66472;SDS011;53291;51.680;8.344;2022-10-22T15:48:43;2.85;;;0.60;;
66472;SDS011;53291;51.680;8.344;2022-10-22T15:51:10;2.80;;;0.65;;
66472;SDS011;53291;51.680;8.344;2022-10-22T15:53:38;2.22;;;0.80;;
66472;SDS011;53291;51.680;8.344;2022-10-22T15:56:04;2.60;;;0.63;;
66472;SDS011;53291;51.680;8.344;2022-10-22T15:58:29;2.83;;;0.50;;
66472;SDS011;53291;51.680;8.344;2022-10-22T16:00:55;2.33;;;0.90;;
66472;SDS011;53291;51.680;8.344;2022-10-22T16:03:27;2.13;;;0.50;;
66472;SDS011;53291;51.680;8.344;2022-10-22T16:05:53;3.60;;;0.60;;
66472;SDS011;53291;51.680;8.344;2022-10-22T16:08:19;3.50;;;0.60;;
66472;SDS011;53291;51.680;8.344;2022-10-22T16:10:45;2.33;;;0.50;;
66472;SDS011;53291;51.680;8.344;2022-10-22T16:13:12;5.65;;;0.93;;
66472;SDS011;53291;51.680;8.344;2022-10-22T16:15:38;2.83;;;0.90;;
66472;SDS011;53291;51.680;8.344;2022-10-22T16:18:03;3.20;;;0.50;;
66472;SDS011;53291;51.680;8.344;2022-10-22T16:20:28;5.35;;;0.80;;
66472;SDS011;53291;51.680;8.344;2022-10-22T16:22:54;1.87;;;0.87;;
66472;SDS011;53291;51.680;8.344;2022-10-22T16:25:19;3.87;;;1.53;;
66472;SDS011;53291;51.680;8.344;2022-10-22T16:27:47;2.37;;;0.73;;